Mound, MN

8:23 AM CDT on August 28, 2015 (GMT -0500)
Spring Park Bay | | Change Station
CLOSE
Current Station
Personal Weather Station
Location: Mound, MN
Elevation: 956 ft
Nearby Weather Stations

Elev 956 ft 44.93 °N, 93.63 °W | Updated 0 second ago

Mostly Cloudy
Mostly Cloudy
67.0 °F
Feels Like 67.0 °F
N
0.0
Wind Variable Wind from ESE
Gusts 1.0 mph

Today
High -- | Low -- °F
--% Chance of Precip.
Yesterday
High -- | Low -- °F
Precip. -- in
6:31 AM 7:59 PM
Waxing Gibbous, 98% visible
Pressure 30.01 in
Visibility 7.0 miles
Clouds Mostly Cloudy 1800 ft
Overcast 2500 ft
Dew Point 66 °F
Humidity 95%
Rainfall 0.00 in
Snow Depth Not available.
UV 0 out of 12
Pollen 1.00 out of 12
Air Quality Not available.
Flu Activity Not available.
METAR KFCM 281253Z 10003KT 7SM BKN018 OVC025 19/17 A3001 RMK AO2 RAE1154B09E36 SLP160 P0000 T01940172
Pressure 30.01 in
Visibility 7.0 miles
Clouds Mostly Cloudy 1800 ft
Overcast 2500 ft
Dew Point 66 °F
Humidity 95%
Rainfall 0.00 in
Snow Depth Not available.
UV 0 out of 12
Pollen 1.00 out of 12
Air Quality Not available.
Flu Activity Not available.
METAR KFCM 281253Z 10003KT 7SM BKN018 OVC025 19/17 A3001 RMK AO2 RAE1154B09E36 SLP160 P0000 T01940172

10-Day Weather Forecast

×

Almanac

Astronomy

Aug. 28, 2015 Rise Set
Actual Time
Civil Twilight
Nautical Twilight
Astronomical Twilight
Moon
Length of Visible Light
Length of Day
Tomorrow will be .
, % of the Moon is Illuminated

Today's Extremes

State Highs State Lows

Community

WunderPhotos

Upload Photos

1,850,375 photos uploaded!

WunderBlogs® & News

Nearby

Air Quality

  Air Quality AQ Index Pollutant
Not available.

Snow Depth

Station Depth Elevation

Earthquake Activity

City Distance Mag. Time & Date
Minimum magnitude displayed is 2.5.

Coastal Water Temperatures

Place Temperature

Stations

Nearby Weather Stations

Station Location Temp. Windchill Dew Point Humidity Wind Precip. Elev Updated Type